< < Back
Terminal Aerodrome Forecast


Current Version              Previous Versions:   1  2  3  4  5  6  7  8  9  

Terminal Aerodrome Forecast

749
FTUS44 KMRX 121720
TAFCHA
TAF
KCHA 121720Z 1218/1318 35006KT P6SM SCT050 BKN100
     FM122200 35009KT P6SM BKN050
     FM130200 35012KT P6SM OVC035
     FM131400 36015KT P6SM SCT040=



Latest METAR

948
SAUS80 KWBC 121800 RRC
MTRCHA
METAR KCHA 121753Z 36003KT 10SM SCT050 SCT110 11/M03 A3012 RMK AO2
SLP201 60000 T01061028 10106 20011 58016


USA.gov is the U.S. government's official web portal to all federal, state and local government web resources and services.